createdAt,value
2019-04-11T00:00:58.182Z,7.3529
2019-04-11T00:02:01.221Z,7.3529
2019-04-11T00:03:05.057Z,7.3529
2019-04-11T00:04:08.286Z,7.3529
2019-04-11T00:05:11.172Z,7.3428
2019-04-11T00:06:15.246Z,7.3227
2019-04-11T00:07:18.272Z,7.3227
2019-04-11T00:08:21.730Z,7.3227
2019-04-11T00:09:24.887Z,7.3227
2019-04-11T00:10:29.188Z,7.3227
2019-04-11T00:11:32.196Z,7.3227
2019-04-11T00:12:35.191Z,7.3428
2019-04-11T00:13:39.121Z,7.3227
2019-04-11T00:14:42.214Z,7.3227
2019-04-11T00:15:45.187Z,7.3227
2019-04-11T00:16:48.184Z,7.3227
2019-04-11T00:17:52.311Z,7.3227
2019-04-11T00:18:54.743Z,7.3026
2019-04-11T00:19:56.192Z,7.3026
2019-04-11T00:21:00.231Z,7.3026
2019-04-11T00:22:03.506Z,7.2723
2019-04-11T00:23:08.048Z,7.2824
2019-04-11T00:24:12.458Z,7.2824
2019-04-11T00:25:15.670Z,7.2723
2019-04-11T00:26:18.174Z,7.2824
2019-04-11T00:27:21.261Z,7.2723
2019-04-11T00:28:24.181Z,7.2723
2019-04-11T00:29:28.123Z,7.2723
2019-04-11T00:30:32.290Z,7.2723
2019-04-11T00:31:35.181Z,7.2723
2019-04-11T00:32:38.169Z,7.2522
2019-04-11T00:33:42.398Z,7.2522
2019-04-11T00:34:45.194Z,7.2421
2019-04-11T00:35:48.063Z,7.2421
2019-04-11T00:36:51.213Z,7.2119
2019-04-11T00:37:54.181Z,7.2018
2019-04-11T00:38:57.335Z,7.1716
2019-04-11T00:40:01.808Z,7.1515
2019-04-11T00:41:04.301Z,7.1313
2019-04-11T00:42:07.244Z,7.1313
2019-04-11T00:43:11.372Z,7.1213
2019-04-11T00:44:14.678Z,7.1011
2019-04-11T00:45:19.215Z,7.0911
2019-04-11T00:46:22.470Z,7.0911
2019-04-11T00:47:25.198Z,7.0709
2019-04-11T00:48:28.227Z,7.0508
2019-04-11T00:49:31.185Z,7.0306
2019-04-11T00:50:35.011Z,7.0206
2019-04-11T00:51:38.196Z,7.0206
2019-04-11T00:52:41.304Z,6.9904
2019-04-11T00:53:44.498Z,6.9803
2019-04-11T00:54:47.198Z,6.9803
2019-04-11T00:55:51.248Z,6.9702
2019-04-11T00:56:54.706Z,6.9702
2019-04-11T00:57:57.213Z,6.9501
2019-04-11T00:59:00.282Z,6.9702
2019-04-11T01:00:05.219Z,6.9702
2019-04-11T01:01:09.159Z,6.9702
2019-04-11T01:02:12.176Z,6.9702
2019-04-11T01:03:15.206Z,6.9501
2019-04-11T01:04:18.189Z,6.9702
2019-04-11T01:05:21.370Z,6.9400
2019-04-11T01:06:24.194Z,6.9501
2019-04-11T01:07:27.210Z,6.9400
2019-04-11T01:08:31.279Z,6.9098
2019-04-11T01:09:34.720Z,6.9098
2019-04-11T01:10:37.201Z,6.9098
2019-04-11T01:11:40.451Z,6.9098
2019-04-11T01:12:43.204Z,6.9199
2019-04-11T01:13:50.920Z,6.9098
2019-04-11T01:14:55.225Z,6.9098
2019-04-11T01:15:58.211Z,6.9098
2019-04-11T01:17:01.193Z,6.9098
2019-04-11T01:18:04.204Z,6.9098
2019-04-11T01:19:07.306Z,6.9098
2019-04-11T01:20:11.142Z,6.8896
2019-04-11T01:21:14.187Z,6.8896
2019-04-11T01:22:16.220Z,6.9098
2019-04-11T01:23:20.685Z,6.9199
2019-04-11T01:24:23.872Z,6.9098
2019-04-11T01:25:27.201Z,6.9098
2019-04-11T01:26:30.170Z,6.9098
2019-04-11T01:27:34.167Z,6.8896
2019-04-11T01:28:37.190Z,6.8896
2019-04-11T01:29:40.190Z,6.8896
2019-04-11T01:30:42.189Z,6.8796
2019-04-11T01:31:46.148Z,6.8796
2019-04-11T01:32:49.219Z,6.8796
2019-04-11T01:33:53.889Z,6.8796
2019-04-11T01:35:07.179Z,6.8896
2019-04-11T01:36:11.181Z,6.8796
2019-04-11T01:37:15.530Z,6.8796
2019-04-11T01:38:18.205Z,6.8695
2019-04-11T01:39:23.178Z,6.8796
2019-04-11T01:40:26.177Z,6.8796
2019-04-11T01:41:29.258Z,6.8796
2019-04-11T01:42:33.357Z,6.8896
2019-04-11T01:43:36.187Z,6.8896
2019-04-11T01:44:39.184Z,6.8896
2019-04-11T01:45:49.664Z,6.8896
2019-04-11T01:46:52.197Z,6.8896
2019-04-11T01:47:55.586Z,6.8896
2019-04-11T01:48:58.192Z,6.9098
2019-04-11T01:50:01.168Z,6.9199
2019-04-11T01:51:05.303Z,6.9199
2019-04-11T01:52:08.192Z,6.9199
2019-04-11T01:53:11.200Z,6.9199
2019-04-11T01:54:15.251Z,6.9400
2019-04-11T01:55:18.521Z,6.9199
2019-04-11T01:56:21.174Z,6.9400
2019-04-11T01:57:24.192Z,6.9400
2019-04-11T01:58:27.184Z,6.9400
2019-04-11T01:59:31.196Z,6.9501
2019-04-11T02:00:34.419Z,6.9400
2019-04-11T02:01:37.024Z,6.9400
2019-04-11T02:02:40.188Z,6.9400
2019-04-11T02:03:44.237Z,6.9199
2019-04-11T02:04:48.053Z,6.9199
2019-04-11T02:05:51.588Z,6.9400
2019-04-11T02:06:54.184Z,6.9400
2019-04-11T02:07:58.732Z,6.9400
2019-04-11T02:09:01.931Z,6.9400
2019-04-11T02:10:05.420Z,6.9199
2019-04-11T02:11:09.759Z,6.9199
2019-04-11T02:12:12.185Z,6.9199
2019-04-11T02:13:15.413Z,6.9199
2019-04-11T02:14:19.959Z,6.9098
2019-04-11T02:15:25.205Z,6.8896
2019-04-11T02:16:29.283Z,6.8896
2019-04-11T02:17:32.858Z,6.8695
2019-04-11T02:18:37.299Z,6.8695
2019-04-11T02:19:41.228Z,6.8393
2019-04-11T02:20:45.189Z,6.8091
2019-04-11T02:21:49.644Z,6.7889
2019-04-11T02:22:52.847Z,6.7587
2019-04-11T02:23:56.337Z,6.7285
2019-04-11T02:25:00.505Z,6.6882
2019-04-11T02:26:03.172Z,6.6580
2019-04-11T02:27:06.506Z,6.6077
2019-04-11T02:28:09.164Z,6.5875
2019-04-11T02:29:13.251Z,6.5775
2019-04-11T02:30:20.020Z,6.5573
2019-04-11T02:31:26.161Z,6.5573
2019-04-11T02:32:29.407Z,6.5573
2019-04-11T02:33:32.959Z,6.5573
2019-04-11T02:34:37.085Z,6.5573
2019-04-11T02:35:42.334Z,6.5775
2019-04-11T02:36:48.918Z,6.5875
2019-04-11T02:37:52.219Z,6.5875
2019-04-11T02:38:59.004Z,6.6077
2019-04-11T02:40:03.709Z,6.6177
2019-04-11T02:41:10.574Z,6.6177
2019-04-11T02:42:16.920Z,6.6580
2019-04-11T02:43:20.518Z,6.6379
2019-04-11T02:44:45.501Z,6.6580
2019-04-11T02:45:45.208Z,6.6580
2019-04-11T02:46:48.238Z,6.6681
2019-04-11T02:47:51.062Z,6.6681
2019-04-11T02:48:56.702Z,6.6882
2019-04-11T02:50:01.195Z,6.6882
2019-04-11T02:51:06.927Z,6.6882
2019-04-11T02:52:13.371Z,6.7084
2019-04-11T02:53:18.373Z,6.7285
2019-04-11T02:54:44.646Z,6.7084
2019-04-11T02:55:51.865Z,6.7386
2019-04-11T02:56:55.178Z,6.7285
2019-04-11T02:57:59.757Z,6.7285
2019-04-11T02:59:05.450Z,6.7285
2019-04-11T03:00:11.090Z,6.7084
2019-04-11T03:01:17.893Z,6.7285
2019-04-11T03:02:21.504Z,6.7285
2019-04-11T03:03:25.384Z,6.6983
2019-04-11T03:04:28.946Z,6.7084
2019-04-11T03:05:34.521Z,6.6983
2019-04-11T03:06:37.206Z,6.6983
2019-04-11T03:07:42.336Z,6.6983
2019-04-11T03:08:46.487Z,6.6983
2019-04-11T03:09:53.372Z,6.7084
2019-04-11T03:10:57.638Z,6.7084
2019-04-11T03:12:00.782Z,6.7084
2019-04-11T03:13:04.587Z,6.7084
2019-04-11T03:14:09.635Z,6.7084
2019-04-11T03:15:27.179Z,6.6983
2019-04-11T03:16:32.858Z,6.7084
2019-04-11T03:17:36.779Z,6.6983
2019-04-11T03:18:54.806Z,6.6882
2019-04-11T03:20:04.507Z,6.6580
2019-04-11T03:21:02.775Z,6.6580
2019-04-11T03:22:05.647Z,6.6379
2019-04-11T03:23:10.799Z,6.6379
2019-04-11T03:24:17.671Z,6.6379
2019-04-11T03:25:22.521Z,6.6379
2019-04-11T03:26:25.186Z,6.6580
2019-04-11T03:27:30.256Z,6.6580
2019-04-11T03:28:35.591Z,6.6580
2019-04-11T03:29:40.670Z,6.6681
2019-04-11T03:31:07.172Z,6.6580
2019-04-11T03:32:33.501Z,6.6580
2019-04-11T03:37:53.591Z,6.6580
2019-04-11T03:39:00.315Z,6.6379
2019-04-11T03:40:09.697Z,6.6379
2019-04-11T03:41:12.786Z,6.6379
2019-04-11T03:42:17.223Z,6.6177
2019-04-11T03:43:24.092Z,6.6077
2019-04-11T03:44:25.443Z,6.6077
2019-04-11T03:45:49.698Z,6.6077
2019-04-11T03:46:49.255Z,6.5875
2019-04-11T03:48:00.912Z,6.5875
2019-04-11T03:49:01.268Z,6.5775
2019-04-11T03:50:06.055Z,6.5875
2019-04-11T03:51:20.514Z,6.5775
2019-04-11T03:52:25.664Z,6.5573
2019-04-11T03:53:29.908Z,6.5472
2019-04-11T03:54:36.267Z,6.5472
2019-04-11T03:55:39.189Z,6.5170
2019-04-11T03:56:43.354Z,6.5372
2019-04-11T03:57:46.966Z,6.5170
2019-04-11T03:58:50.396Z,6.5170
2019-04-11T03:59:54.545Z,6.4868
2019-04-11T04:01:03.244Z,6.5070
2019-04-11T04:02:07.639Z,6.5170
2019-04-11T04:03:12.099Z,6.5070
2019-04-11T04:04:19.320Z,6.5070
2019-04-11T04:05:26.182Z,6.5070
2019-04-11T04:06:28.832Z,6.4767
2019-04-11T04:07:31.983Z,6.4767
2019-04-11T04:08:36.362Z,6.4566
2019-04-11T04:09:43.801Z,6.4365
2019-04-11T04:10:47.718Z,6.4365
2019-04-11T04:11:51.173Z,6.4264
2019-04-11T04:12:55.684Z,6.4264
2019-04-11T04:13:59.891Z,6.4062
2019-04-11T04:15:06.493Z,6.4062
2019-04-11T04:16:21.652Z,6.3962
2019-04-11T04:17:21.375Z,6.3760
2019-04-11T04:18:25.175Z,6.3660
2019-04-11T04:19:30.409Z,6.3559
2019-04-11T04:20:35.287Z,6.3559
2019-04-11T04:21:38.846Z,6.3660
2019-04-11T04:22:44.057Z,6.3358
2019-04-11T04:23:49.621Z,6.3559
2019-04-11T04:24:53.999Z,6.3257
2019-04-11T04:26:01.221Z,6.2753
2019-04-11T04:27:07.167Z,6.2753
2019-04-11T04:28:13.661Z,6.2753
2019-04-11T04:29:17.943Z,6.2653
2019-04-11T04:30:21.908Z,6.2653
2019-04-11T04:31:26.548Z,6.2653
2019-04-11T04:32:30.410Z,6.2451
2019-04-11T04:33:36.334Z,6.2451
2019-04-11T04:34:42.093Z,6.2653
2019-04-11T04:35:45.190Z,6.2250
2019-04-11T04:36:49.710Z,6.2451
2019-04-11T04:37:52.202Z,6.2149
2019-04-11T04:38:56.930Z,6.2250
2019-04-11T04:40:21.152Z,6.2250
2019-04-11T04:41:22.472Z,6.2250
2019-04-11T04:42:26.405Z,6.2149
2019-04-11T04:43:27.536Z,6.1948
2019-04-11T04:44:33.408Z,6.1948
2019-04-11T04:45:55.146Z,6.1847
2019-04-11T04:46:58.085Z,6.1847
2019-04-11T04:47:56.588Z,6.1847
2019-04-11T04:49:00.186Z,6.1746
2019-04-11T04:50:06.177Z,6.1746
2019-04-11T04:51:11.414Z,6.1545
2019-04-11T04:52:16.457Z,6.1847
2019-04-11T04:53:20.421Z,6.1746
2019-04-11T04:54:25.184Z,6.1847
2019-04-11T04:55:30.292Z,6.1746
2019-04-11T04:56:34.942Z,6.1746
2019-04-11T04:57:40.495Z,6.1847
2019-04-11T04:58:44.455Z,6.1746
2019-04-11T04:59:48.795Z,6.1746
2019-04-11T05:00:54.265Z,6.1545
2019-04-11T05:01:59.396Z,6.1545
2019-04-11T05:03:02.521Z,6.1545
2019-04-11T05:04:06.752Z,6.1545
2019-04-11T05:05:09.571Z,6.1545
2019-04-11T05:06:14.324Z,6.1545
2019-04-11T05:07:19.266Z,6.1545
2019-04-11T05:08:22.862Z,6.1545
2019-04-11T05:09:26.203Z,6.1545
2019-04-11T05:10:30.666Z,6.1545
2019-04-11T05:11:33.955Z,6.1545
2019-04-11T05:12:38.626Z,6.1545
2019-04-11T05:13:45.307Z,6.1746
2019-04-11T05:14:51.799Z,6.1746
2019-04-11T05:16:06.857Z,6.1847
2019-04-11T05:17:04.332Z,6.1847
2019-04-11T05:18:06.324Z,6.1746
2019-04-11T05:19:09.180Z,6.1746
2019-04-11T05:20:14.057Z,6.1847
2019-04-11T05:21:17.192Z,6.2149
2019-04-11T05:22:20.196Z,6.1948
2019-04-11T05:23:23.534Z,6.2149
2019-04-11T05:24:26.432Z,6.2250
2019-04-11T05:25:30.825Z,6.2451
2019-04-11T05:26:33.388Z,6.2451
2019-04-11T05:27:36.193Z,6.2149
2019-04-11T05:28:39.397Z,6.2149
2019-04-11T05:29:42.194Z,6.1847
2019-04-11T05:30:44.984Z,6.1444
2019-04-11T05:31:49.223Z,6.1545
2019-04-11T05:32:52.199Z,6.1746
2019-04-11T05:33:56.072Z,6.1847
2019-04-11T05:34:59.205Z,6.1948
2019-04-11T05:36:02.187Z,6.2149
2019-04-11T05:37:05.206Z,6.2149
2019-04-11T05:38:08.415Z,6.2149
2019-04-11T05:39:11.206Z,6.2250
2019-04-11T05:40:14.849Z,6.2653
2019-04-11T05:41:17.355Z,6.2653
2019-04-11T05:42:22.754Z,6.2653
2019-04-11T05:43:31.884Z,6.2753
2019-04-11T05:44:38.181Z,6.2955
2019-04-11T05:45:43.189Z,6.3055
2019-04-11T05:46:52.408Z,6.3257
2019-04-11T05:47:56.355Z,6.3559
2019-04-11T05:49:00.740Z,6.3760
2019-04-11T05:50:13.542Z,6.3962
2019-04-11T05:51:21.338Z,6.4062
2019-04-11T05:52:27.387Z,6.4365
2019-04-11T05:53:35.323Z,6.4767
2019-04-11T05:54:41.812Z,6.4767
2019-04-11T05:55:47.560Z,6.5070
2019-04-11T05:56:54.735Z,6.5372
2019-04-11T05:57:58.639Z,6.5170
2019-04-11T05:59:01.917Z,6.5472
2019-04-11T06:00:05.541Z,6.5472
2019-04-11T06:01:10.040Z,6.5472
2019-04-11T06:02:15.103Z,6.5775
2019-04-11T06:03:18.197Z,6.5875
2019-04-11T06:04:24.087Z,6.6077
2019-04-11T06:05:32.459Z,6.6177
2019-04-11T06:06:40.178Z,6.6379
2019-04-11T06:07:46.994Z,6.6681
2019-04-11T06:08:50.168Z,6.6882
2019-04-11T06:09:53.190Z,6.6983
2019-04-11T06:10:56.687Z,6.7084
2019-04-11T06:11:59.209Z,6.6882
2019-04-11T06:13:02.501Z,6.6580
2019-04-11T06:14:05.889Z,6.6580
2019-04-11T06:15:11.548Z,6.6580
2019-04-11T06:16:14.618Z,6.6580
2019-04-11T06:17:18.364Z,6.6379
2019-04-11T06:18:27.859Z,6.6077
2019-04-11T06:19:30.348Z,6.5875
2019-04-11T06:20:33.449Z,6.5775
2019-04-11T06:21:36.193Z,6.5775
2019-04-11T06:22:40.254Z,6.5573
2019-04-11T06:23:43.468Z,6.5775
2019-04-11T06:24:46.207Z,6.5775
2019-04-11T06:25:49.283Z,6.5875
2019-04-11T06:26:52.190Z,6.6177
2019-04-11T06:27:55.812Z,6.6379
2019-04-11T06:28:59.101Z,6.6681
2019-04-11T06:30:09.663Z,6.6983
2019-04-11T06:31:33.862Z,6.7084
2019-04-11T06:32:37.366Z,6.7285
2019-04-11T06:33:41.222Z,6.7285
2019-04-11T06:34:44.191Z,6.7285
2019-04-11T06:35:48.267Z,6.7386
2019-04-11T06:36:51.214Z,6.7285
2019-04-11T06:37:54.313Z,6.7285
2019-04-11T06:38:57.198Z,6.6983
2019-04-11T06:40:00.853Z,6.7084
2019-04-11T06:41:06.179Z,6.7084
2019-04-11T06:42:09.203Z,6.7285
2019-04-11T06:43:12.208Z,6.7285
2019-04-11T06:44:16.365Z,6.7084
2019-04-11T06:45:19.709Z,6.6983
2019-04-11T06:46:22.168Z,6.6882
2019-04-11T06:47:25.182Z,6.6882
2019-04-11T06:48:28.215Z,6.6882
2019-04-11T06:49:31.184Z,6.6681
2019-04-11T06:50:35.380Z,6.6681
2019-04-11T06:51:38.491Z,6.6580
2019-04-11T06:52:41.284Z,6.6882
2019-04-11T06:53:44.211Z,6.7084
2019-04-11T06:54:47.518Z,6.7084
2019-04-11T06:55:50.954Z,6.7084
2019-04-11T06:56:54.181Z,6.7084
2019-04-11T06:57:58.414Z,6.7386
2019-04-11T06:59:01.728Z,6.7386
2019-04-11T07:00:05.201Z,6.7688
2019-04-11T07:01:08.269Z,6.8091
2019-04-11T07:02:16.522Z,6.8796
2019-04-11T07:03:23.141Z,6.9400
2019-04-11T07:04:27.385Z,6.9803
2019-04-11T07:05:30.903Z,7.0508
2019-04-11T07:06:34.262Z,7.0709
2019-04-11T07:07:37.749Z,7.1011
2019-04-11T07:08:40.613Z,7.1011
2019-04-11T07:09:43.209Z,7.1313
2019-04-11T07:10:46.726Z,7.1011
2019-04-11T07:11:49.198Z,7.1213
2019-04-11T07:12:54.230Z,7.1213
2019-04-11T07:13:59.182Z,7.1011
2019-04-11T07:15:02.572Z,7.1313
2019-04-11T07:16:05.962Z,7.1313
2019-04-11T07:17:10.395Z,7.1515
2019-04-11T07:18:14.202Z,7.1213
2019-04-11T07:19:17.689Z,7.1011
2019-04-11T07:20:20.756Z,7.1011
2019-04-11T07:21:23.328Z,7.1313
2019-04-11T07:22:26.242Z,7.1616
2019-04-11T07:23:29.198Z,7.2119
2019-04-11T07:24:32.357Z,7.2723
2019-04-11T07:25:35.294Z,7.3126
2019-04-11T07:26:38.234Z,7.3730
2019-04-11T07:27:41.181Z,7.4033
2019-04-11T07:28:44.182Z,7.4335
2019-04-11T07:29:47.204Z,7.4234
2019-04-11T07:30:50.285Z,7.4234
2019-04-11T07:31:53.206Z,7.4033
2019-04-11T07:32:56.251Z,7.3932
2019-04-11T07:34:00.528Z,7.4033
2019-04-11T07:35:04.651Z,7.3529
2019-04-11T07:36:08.354Z,7.3529
2019-04-11T07:37:12.588Z,7.3428
2019-04-11T07:38:16.290Z,7.3932
2019-04-11T07:39:18.183Z,7.3529
2019-04-11T07:40:20.241Z,7.3932
2019-04-11T07:41:23.948Z,7.3730
2019-04-11T07:42:27.285Z,7.3730
2019-04-11T07:43:31.292Z,7.3730
2019-04-11T07:44:34.204Z,7.3730
2019-04-11T07:45:38.519Z,7.3529
2019-04-11T07:46:43.227Z,7.3428
2019-04-11T07:47:46.194Z,7.3428
2019-04-11T07:48:50.210Z,7.3428
2019-04-11T07:49:55.170Z,7.3428
2019-04-11T07:50:59.743Z,7.3227
2019-04-11T07:52:02.530Z,7.3428
2019-04-11T07:53:05.189Z,7.3428
2019-04-11T07:54:09.269Z,7.3428
2019-04-11T07:55:13.138Z,7.3730
2019-04-11T07:56:16.483Z,7.3730
2019-04-11T07:57:19.387Z,7.3529
2019-04-11T07:58:22.183Z,7.3730
2019-04-11T07:59:25.229Z,7.3932
2019-04-11T08:00:38.600Z,7.4033
2019-04-11T08:01:36.297Z,7.4234
2019-04-11T08:02:39.881Z,7.4335
2019-04-11T08:03:43.191Z,7.4637
2019-04-11T08:04:47.300Z,7.4838
2019-04-11T08:05:50.285Z,7.5040
2019-04-11T08:06:53.999Z,7.5342
2019-04-11T08:07:57.410Z,7.5342
2019-04-11T08:09:01.303Z,7.5040
2019-04-11T08:10:04.195Z,7.4838
2019-04-11T08:11:07.197Z,7.4536
2019-04-11T08:12:10.176Z,7.4335
2019-04-11T08:13:14.122Z,7.4234
2019-04-11T08:14:18.325Z,7.4335
2019-04-11T08:15:21.668Z,7.4536
2019-04-11T08:16:24.180Z,7.4637
2019-04-11T08:17:35.524Z,7.4939
2019-04-11T08:18:35.189Z,7.5342
2019-04-11T08:19:38.630Z,7.6047
2019-04-11T08:20:41.563Z,7.6349
2019-04-11T08:21:44.425Z,7.6852
2019-04-11T08:22:47.561Z,7.7356
2019-04-11T08:23:50.179Z,7.7658
2019-04-11T08:24:53.254Z,7.8162
2019-04-11T08:25:56.180Z,7.8464
2019-04-11T08:26:59.186Z,7.8867
2019-04-11T08:28:04.362Z,7.9471
2019-04-11T08:29:12.312Z,7.9974
2019-04-11T08:30:17.243Z,8.0478
2019-04-11T08:31:21.551Z,8.0981
2019-04-11T08:32:25.446Z,8.1183
2019-04-11T08:33:28.796Z,8.1586
2019-04-11T08:34:31.463Z,8.1989
2019-04-11T08:35:34.586Z,8.2190
2019-04-11T08:36:37.993Z,8.2895
2019-04-11T08:37:41.179Z,8.3801
2019-04-11T08:38:44.696Z,8.4708
2019-04-11T08:39:49.078Z,8.5513
2019-04-11T08:40:53.262Z,8.6520
2019-04-11T08:41:56.926Z,8.7125
2019-04-11T08:43:00.191Z,8.8132
2019-04-11T08:44:03.652Z,8.8937
2019-04-11T08:45:06.197Z,9.0146
2019-04-11T08:46:09.197Z,9.1254
2019-04-11T08:47:12.190Z,9.1959
2019-04-11T08:48:15.023Z,9.2361
2019-04-11T08:49:18.427Z,9.2563
2019-04-11T08:50:20.671Z,9.3066
2019-04-11T08:51:23.316Z,9.3771
2019-04-11T08:52:26.215Z,9.4174
2019-04-11T08:53:29.201Z,9.4577
2019-04-11T08:54:33.291Z,9.4577
2019-04-11T08:55:45.561Z,9.4577
2019-04-11T08:56:45.379Z,9.4778
2019-04-11T08:57:48.206Z,9.5282
2019-04-11T08:58:51.202Z,9.5685
2019-04-11T08:59:54.166Z,9.5987
2019-04-11T09:01:00.151Z,9.6591
2019-04-11T09:02:04.523Z,9.6490
2019-04-11T09:03:07.288Z,9.6490
2019-04-11T09:04:11.911Z,9.6793
2019-04-11T09:05:18.771Z,9.6893
2019-04-11T09:06:23.211Z,9.6893
2019-04-11T09:07:27.506Z,9.6591
2019-04-11T09:08:32.253Z,9.5786
2019-04-11T09:09:36.277Z,9.5282
2019-04-11T09:10:40.058Z,9.5081
2019-04-11T09:11:43.243Z,9.4577
2019-04-11T09:12:46.820Z,9.4174
2019-04-11T09:13:49.465Z,9.3872
2019-04-11T09:14:52.666Z,9.3872
2019-04-11T09:15:55.201Z,9.4275
2019-04-11T09:16:58.357Z,9.4778
2019-04-11T09:18:04.707Z,9.5383
2019-04-11T09:19:10.403Z,9.5383
2019-04-11T09:20:13.597Z,9.5282
2019-04-11T09:21:16.210Z,9.5786
2019-04-11T09:22:19.220Z,9.6793
2019-04-11T09:23:22.173Z,9.7598
2019-04-11T09:24:26.265Z,9.9310
2019-04-11T09:25:30.478Z,10.0922
2019-04-11T09:26:34.205Z,10.2734
2019-04-11T09:27:38.408Z,10.4144
2019-04-11T09:28:41.842Z,10.5453
2019-04-11T09:29:46.231Z,10.6058
2019-04-11T09:30:49.462Z,10.7266
2019-04-11T09:31:52.202Z,10.8575
2019-04-11T09:32:56.208Z,10.9683
2019-04-11T09:33:59.543Z,11.0690
2019-04-11T09:35:02.253Z,11.2503
2019-04-11T09:36:05.895Z,11.3913
2019-04-11T09:37:09.433Z,11.5424
2019-04-11T09:38:13.928Z,11.6531
2019-04-11T09:39:17.180Z,11.6733
2019-04-11T09:40:20.416Z,11.6431
2019-04-11T09:41:24.797Z,11.5726
2019-04-11T09:42:28.295Z,11.5222
2019-04-11T09:43:31.780Z,11.5222
2019-04-11T09:44:34.982Z,11.5222
2019-04-11T09:45:38.203Z,11.4215
2019-04-11T09:46:41.192Z,11.2805
2019-04-11T09:47:45.616Z,11.1899
2019-04-11T09:48:48.417Z,11.1496
2019-04-11T09:49:51.586Z,11.0590
2019-04-11T09:50:54.274Z,11.0187
2019-04-11T09:51:58.225Z,10.9180
2019-04-11T09:53:01.566Z,10.9583
2019-04-11T09:54:04.239Z,10.9885
2019-04-11T09:55:08.564Z,10.9683
2019-04-11T09:56:11.296Z,10.9885
2019-04-11T09:57:14.278Z,11.0187
2019-04-11T09:58:17.481Z,11.0187
2019-04-11T09:59:20.965Z,11.0892
2019-04-11T10:00:24.269Z,11.1395
2019-04-11T10:01:27.278Z,11.1798
2019-04-11T10:02:31.079Z,11.2100
2019-04-11T10:03:34.593Z,11.2503
2019-04-11T10:04:37.232Z,11.2906
2019-04-11T10:05:57.218Z,11.3309
2019-04-11T10:07:01.275Z,11.4014
2019-04-11T10:08:08.655Z,11.4215
2019-04-11T10:09:13.523Z,11.3913
2019-04-11T10:10:16.910Z,11.3913
2019-04-11T10:11:20.258Z,11.4719
2019-04-11T10:12:24.205Z,11.5424
2019-04-11T10:13:27.334Z,11.5524
2019-04-11T10:14:31.504Z,11.5524
2019-04-11T10:15:35.519Z,11.5524
2019-04-11T10:16:42.281Z,11.6129
2019-04-11T10:17:46.384Z,11.6531
2019-04-11T10:18:56.299Z,11.7337
2019-04-11T10:20:00.251Z,11.8344
2019-04-11T10:21:05.238Z,11.9754
2019-04-11T10:22:08.931Z,12.0862
2019-04-11T10:23:13.777Z,12.0963
2019-04-11T10:24:20.551Z,12.1265
2019-04-11T10:25:23.394Z,12.1265
2019-04-11T10:26:29.727Z,12.1365
2019-04-11T10:27:32.984Z,12.1667
2019-04-11T10:28:37.504Z,12.2070
2019-04-11T10:29:40.364Z,12.2775
2019-04-11T10:30:44.113Z,12.2775
2019-04-11T10:31:48.521Z,12.2675
2019-04-11T10:32:53.548Z,12.2272
2019-04-11T10:34:03.279Z,12.1970
2019-04-11T10:35:08.203Z,12.1970
2019-04-11T10:36:13.273Z,12.2272
2019-04-11T10:37:17.887Z,12.3178
2019-04-11T10:38:22.439Z,12.3682
2019-04-11T10:39:25.346Z,12.3782
2019-04-11T10:40:28.211Z,12.3077
2019-04-11T10:41:32.641Z,12.2775
2019-04-11T10:42:35.273Z,12.2775
2019-04-11T10:43:57.167Z,12.2675
2019-04-11T10:45:00.367Z,12.2372
2019-04-11T10:46:03.239Z,12.1970
2019-04-11T10:47:08.342Z,12.0459
2019-04-11T10:48:12.247Z,11.8646
2019-04-11T10:49:15.196Z,11.7639
2019-04-11T10:50:21.744Z,11.6934
2019-04-11T10:51:26.948Z,11.6531
2019-04-11T10:52:30.827Z,11.6531
2019-04-11T10:53:35.406Z,11.6934
2019-04-11T10:54:42.936Z,11.7538
2019-04-11T10:55:47.676Z,11.7941
2019-04-11T10:56:50.186Z,11.8344
2019-04-11T10:57:54.087Z,11.8344
2019-04-11T10:58:57.431Z,11.7841
2019-04-11T11:00:00.242Z,11.7538
2019-04-11T11:01:03.968Z,11.7035
2019-04-11T11:02:07.172Z,11.6733
2019-04-11T11:03:11.615Z,11.6431
2019-04-11T11:04:18.033Z,11.6028
2019-04-11T11:05:22.160Z,11.4719
2019-04-11T11:06:27.473Z,11.3913
2019-04-11T11:07:30.790Z,11.2906
2019-04-11T11:08:37.591Z,11.2805
2019-04-11T11:09:40.303Z,11.3208
2019-04-11T11:10:45.884Z,11.3913
2019-04-11T11:11:50.547Z,11.5424
2019-04-11T11:14:05.211Z,11.7337
2019-04-11T11:15:09.292Z,11.7538
2019-04-11T11:16:12.305Z,11.7841
2019-04-11T11:17:28.878Z,11.8042
2019-04-11T11:18:42.643Z,11.8546
2019-04-11T11:19:49.784Z,11.9049
2019-04-11T11:20:50.150Z,11.9351
2019-04-11T11:21:51.262Z,11.9452
2019-04-11T11:22:55.957Z,11.9351
2019-04-11T11:23:59.219Z,11.9351
2019-04-11T11:25:02.403Z,11.9351
2019-04-11T11:26:05.211Z,11.9553
2019-04-11T11:27:09.630Z,12.0056
2019-04-11T11:28:16.423Z,11.9855
2019-04-11T11:29:20.470Z,11.9855
2019-04-11T11:30:27.270Z,12.0660
2019-04-11T11:31:30.298Z,12.1164
2019-04-11T11:32:34.199Z,12.0056
2019-04-11T11:33:38.638Z,11.8344
2019-04-11T11:34:41.232Z,11.7538
2019-04-11T11:35:44.322Z,11.6733
2019-04-11T11:36:48.431Z,11.6129
2019-04-11T11:37:53.412Z,11.5826
2019-04-11T11:38:55.189Z,11.6028
2019-04-11T11:40:02.614Z,11.6129
2019-04-11T11:41:08.540Z,11.5524
2019-04-11T11:42:12.290Z,11.4920
2019-04-11T11:43:15.243Z,11.4618
2019-04-11T11:44:19.480Z,11.4014
2019-04-11T11:45:23.587Z,11.3208
2019-04-11T11:46:26.786Z,11.2503
2019-04-11T11:47:35.674Z,11.2805
2019-04-11T11:48:40.193Z,11.3309
2019-04-11T11:49:51.938Z,11.3611
2019-04-11T11:50:51.494Z,11.3913
2019-04-11T11:51:58.059Z,11.4215
2019-04-11T11:53:08.229Z,11.4719
2019-04-11T11:54:11.489Z,11.6028
2019-04-11T11:55:14.187Z,11.7236
2019-04-11T11:56:17.873Z,11.8344
2019-04-11T11:57:20.454Z,11.9351
2019-04-11T11:58:23.677Z,12.0459
2019-04-11T11:59:27.381Z,12.1164
2019-04-11T12:00:31.752Z,12.1164
2019-04-11T12:01:34.220Z,12.1567
2019-04-11T12:02:37.350Z,12.1970
2019-04-11T12:03:42.339Z,12.2675
2019-04-11T12:04:46.661Z,12.3178
2019-04-11T12:05:52.161Z,12.3682
2019-04-11T12:07:03.615Z,12.4588
2019-04-11T12:08:09.619Z,12.5192
2019-04-11T12:09:14.206Z,12.5595
2019-04-11T12:10:17.446Z,12.6199
2019-04-11T12:11:20.174Z,12.7408
2019-04-11T12:12:23.941Z,12.8314
2019-04-11T12:13:28.311Z,12.9019
2019-04-11T12:14:31.211Z,12.9724
2019-04-11T12:15:35.072Z,13.0026
2019-04-11T12:16:39.703Z,13.0429
2019-04-11T12:17:42.802Z,13.0731
2019-04-11T12:18:49.817Z,13.0328
2019-04-11T12:19:57.442Z,13.0026
2019-04-11T12:21:01.205Z,13.0328
2019-04-11T12:22:04.397Z,13.0832
2019-04-11T12:23:07.210Z,13.1235
2019-04-11T12:24:11.325Z,13.1134
2019-04-11T12:25:14.589Z,13.0731
2019-04-11T12:26:18.299Z,13.0127
2019-04-11T12:27:21.292Z,12.9623
2019-04-11T12:28:25.553Z,12.9221
2019-04-11T12:29:30.210Z,12.8717
2019-04-11T12:30:35.360Z,12.8214
2019-04-11T12:31:38.367Z,12.6804
2019-04-11T12:32:41.225Z,12.5897
2019-04-11T12:33:44.189Z,12.5293
2019-04-11T12:34:47.234Z,12.4890
2019-04-11T12:35:50.777Z,12.3883
2019-04-11T12:36:54.823Z,12.2876
2019-04-11T12:37:59.959Z,12.1869
2019-04-11T12:39:03.244Z,12.0459
2019-04-11T12:40:09.650Z,11.9553
2019-04-11T12:41:21.215Z,11.8646
2019-04-11T12:42:24.185Z,11.7941
2019-04-11T12:43:27.186Z,11.7841
2019-04-11T12:44:30.434Z,11.8042
2019-04-11T12:45:32.200Z,11.9150
2019-04-11T12:46:35.206Z,11.9855
2019-04-11T12:47:39.181Z,11.9855
2019-04-11T12:48:42.184Z,11.9754
2019-04-11T12:49:52.744Z,11.9855
2019-04-11T12:50:53.238Z,11.9452
2019-04-11T12:51:55.497Z,11.9150
2019-04-11T12:52:58.196Z,11.8646
2019-04-11T12:54:01.925Z,11.8646
2019-04-11T12:55:05.225Z,11.8243
2019-04-11T12:56:08.224Z,11.8243
2019-04-11T12:57:12.162Z,11.8042
2019-04-11T12:58:15.201Z,11.7841
2019-04-11T12:59:18.240Z,11.7941
2019-04-11T13:00:22.087Z,11.8243
2019-04-11T13:01:25.212Z,11.8546
2019-04-11T13:02:28.208Z,11.8344
2019-04-11T13:03:32.266Z,11.8344
2019-04-11T13:04:36.282Z,11.8848
2019-04-11T13:05:44.254Z,11.9351
2019-04-11T13:06:47.197Z,11.9553
2019-04-11T13:07:50.196Z,11.9452
2019-04-11T13:08:53.196Z,11.9452
2019-04-11T13:09:57.168Z,11.9754
2019-04-11T13:11:00.185Z,12.0056
2019-04-11T13:12:03.190Z,12.0459
2019-04-11T13:13:06.243Z,12.1265
2019-04-11T13:14:09.220Z,12.2070
2019-04-11T13:15:12.215Z,12.3178
2019-04-11T13:16:16.262Z,12.3782
2019-04-11T13:17:19.217Z,12.3782
2019-04-11T13:18:22.230Z,12.3380
2019-04-11T13:19:26.045Z,12.2775
2019-04-11T13:20:29.197Z,12.1869
2019-04-11T13:21:32.217Z,12.1164